Time;durP1;ratioP1;P1;durP2;ratioP2;P2;SDS_P1;SDS_P2;PMS_P1;PMS_P2;Temp;Humidity;BMP_temperature;BMP_pressure;BME280_temperature;BME280_humidity;BME280_pressure;Samples;Min_cycle;Max_cycle;Signal;HPM_P1;HPM_P2
2023/01/11 00:00:22;;;;;;;13.18;3.80;;;5.50;99.90;;;;;;465961;252;27879;-77
2023/01/11 00:02:24;;;;;;;14.35;3.37;;;5.40;99.90;;;;;;465966;252;27964;-80
2023/01/11 00:04:28;;;;;;;10.18;3.37;;;5.50;99.90;;;;;;465984;251;27455;-81
2023/01/11 00:06:26;;;;;;;9.38;3.35;;;5.50;99.90;;;;;;465640;255;27410;-78
2023/01/11 00:08:27;;;;;;;9.98;3.30;;;5.50;99.90;;;;;;466015;252;27538;-77
2023/01/11 00:10:29;;;;;;;7.22;2.85;;;5.50;99.90;;;;;;465910;255;27490;-79
2023/01/11 00:12:30;;;;;;;7.78;3.00;;;5.60;99.90;;;;;;465962;252;27530;-80
2023/01/11 00:14:31;;;;;;;5.05;3.17;;;5.60;99.90;;;;;;465957;252;28133;-81
2023/01/11 00:16:32;;;;;;;7.12;2.87;;;5.60;99.90;;;;;;465977;252;27917;-80
2023/01/11 00:18:33;;;;;;;6.53;2.80;;;5.60;99.90;;;;;;465964;252;27931;-78
2023/01/11 00:20:35;;;;;;;11.65;3.50;;;5.70;99.90;;;;;;465973;252;27419;-79
2023/01/11 00:22:36;;;;;;;8.70;3.80;;;5.70;99.90;;;;;;465939;252;27450;-79
2023/01/11 00:24:37;;;;;;;5.90;3.00;;;5.70;99.90;;;;;;465931;252;27457;-78
2023/01/11 00:26:39;;;;;;;9.45;3.50;;;5.70;99.90;;;;;;465997;255;27443;-78
2023/01/11 00:28:41;;;;;;;7.12;3.00;;;5.70;99.90;;;;;;465976;252;27461;-77
2023/01/11 00:30:42;;;;;;;8.43;3.30;;;5.80;99.90;;;;;;465955;252;27977;-79
2023/01/11 00:32:43;;;;;;;11.63;3.70;;;5.80;99.90;;;;;;465931;252;27943;-79
2023/01/11 00:34:44;;;;;;;11.25;3.25;;;5.80;99.90;;;;;;465972;252;27434;-80
2023/01/11 00:36:46;;;;;;;15.02;3.50;;;5.80;99.90;;;;;;465960;252;27459;-81
2023/01/11 00:38:50;;;;;;;12.65;3.33;;;5.80;99.90;;;;;;465951;252;27428;-79
2023/01/11 00:40:48;;;;;;;11.32;3.60;;;5.80;99.90;;;;;;465694;255;27562;-80
2023/01/11 00:49:48;;;;;;;9.48;2.72;;;5.90;99.90;;;;;;465954;255;27572;-78
2023/01/11 00:51:49;;;;;;;6.78;3.03;;;5.90;99.90;;;;;;465960;252;27423;-80
2023/01/11 00:53:51;;;;;;;4.93;2.53;;;5.90;99.90;;;;;;465979;252;27489;-80
2023/01/11 00:55:54;;;;;;;10.60;2.67;;;5.90;99.90;;;;;;465966;252;27489;-80
2023/01/11 00:57:55;;;;;;;7.57;2.70;;;5.90;99.90;;;;;;465965;252;27871;-79
2023/01/11 00:59:57;;;;;;;5.35;2.62;;;5.90;99.90;;;;;;465968;252;27947;-78
2023/01/11 01:01:58;;;;;;;11.95;3.00;;;6.00;99.90;;;;;;465961;252;27490;-80
2023/01/11 01:03:59;;;;;;;5.72;2.60;;;6.00;99.90;;;;;;465959;252;27466;-80
2023/01/11 01:06:01;;;;;;;5.87;2.95;;;5.90;99.90;;;;;;466005;252;27467;-77
2023/01/11 01:08:02;;;;;;;6.37;2.25;;;5.90;99.90;;;;;;465994;252;27431;-78
2023/01/11 01:10:03;;;;;;;10.40;2.90;;;5.90;99.90;;;;;;466007;252;27502;-80
2023/01/11 01:12:05;;;;;;;12.93;3.30;;;6.00;99.90;;;;;;465961;255;27427;-80
2023/01/11 01:16:25;;;;;;;5.80;2.42;;;6.00;99.90;;;;;;465979;255;27494;-77
2023/01/11 01:18:26;;;;;;;6.40;2.37;;;6.00;99.90;;;;;;465964;252;27490;-79
2023/01/11 01:20:28;;;;;;;10.63;3.00;;;6.10;99.90;;;;;;465940;252;27456;-77
2023/01/11 01:22:29;;;;;;;9.80;3.08;;;6.10;99.90;;;;;;465991;252;28078;-79
2023/01/11 01:24:31;;;;;;;6.70;2.67;;;6.10;99.90;;;;;;465983;252;27426;-77
2023/01/11 01:26:31;;;;;;;9.88;2.47;;;6.10;99.90;;;;;;465933;252;27569;-77
2023/01/11 01:28:33;;;;;;;7.32;2.60;;;6.20;99.90;;;;;;465964;252;27502;-79
2023/01/11 01:30:34;;;;;;;4.43;2.65;;;6.20;99.90;;;;;;465474;252;27478;-80
2023/01/11 01:32:35;;;;;;;8.68;2.35;;;6.30;99.90;;;;;;465849;252;27828;-80
2023/01/11 01:34:36;;;;;;;7.85;2.85;;;6.30;99.90;;;;;;465941;252;27546;-80
2023/01/11 01:36:38;;;;;;;9.20;2.80;;;6.40;99.90;;;;;;465985;252;27974;-79
2023/01/11 01:38:39;;;;;;;8.95;3.05;;;6.40;99.90;;;;;;465974;252;27900;-80
2023/01/11 01:40:40;;;;;;;3.97;2.62;;;6.40;99.90;;;;;;465981;252;27546;-78
2023/01/11 01:42:42;;;;;;;2.97;2.25;;;6.40;99.90;;;;;;466013;252;27551;-81
2023/01/11 01:44:43;;;;;;;9.23;2.90;;;6.50;99.90;;;;;;465978;252;27496;-80
2023/01/11 01:46:44;;;;;;;6.70;2.70;;;6.50;99.90;;;;;;465967;252;27455;-78
2023/01/11 01:48:45;;;;;;;5.90;2.40;;;6.50;99.90;;;;;;465954;252;27419;-80
2023/01/11 01:50:47;;;;;;;5.62;2.90;;;6.60;99.90;;;;;;465940;252;28033;-81
2023/01/11 01:52:48;;;;;;;4.03;2.70;;;6.60;99.90;;;;;;466015;252;27553;-80
2023/01/11 01:54:49;;;;;;;9.50;2.70;;;6.60;99.90;;;;;;465976;252;27508;-78
2023/01/11 01:56:50;;;;;;;10.32;3.25;;;6.60;99.90;;;;;;465976;251;29195;-79
2023/01/11 01:58:52;;;;;;;7.25;2.22;;;6.60;99.90;;;;;;465929;252;27931;-80
2023/01/11 02:00:53;;;;;;;8.75;3.17;;;6.60;99.90;;;;;;465941;255;27466;-79
2023/01/11 02:02:54;;;;;;;4.47;3.17;;;6.60;99.90;;;;;;466010;252;27470;-79
2023/01/11 02:04:55;;;;;;;3.87;2.08;;;6.70;99.90;;;;;;465973;252;27882;-79
2023/01/11 02:06:57;;;;;;;7.62;3.00;;;6.70;99.90;;;;;;465974;252;27465;-80
2023/01/11 02:08:58;;;;;;;6.35;2.90;;;6.70;99.90;;;;;;465985;252;27422;-79
2023/01/11 02:10:59;;;;;;;3.75;2.20;;;6.70;99.90;;;;;;465953;252;27459;-78
2023/01/11 02:13:00;;;;;;;9.18;2.90;;;6.70;99.90;;;;;;465996;252;27476;-79
2023/01/11 02:15:02;;;;;;;3.25;2.47;;;6.80;99.90;;;;;;465994;252;27470;-78
2023/01/11 02:17:03;;;;;;;5.25;2.80;;;6.80;99.90;;;;;;465975;252;27945;-80
2023/01/11 02:19:04;;;;;;;4.60;2.45;;;6.80;99.90;;;;;;465930;252;27997;-79
2023/01/11 02:21:05;;;;;;;5.87;2.90;;;6.80;99.90;;;;;;465972;252;27549;-80
2023/01/11 02:23:07;;;;;;;8.97;2.70;;;6.80;99.90;;;;;;465988;252;27439;-79
2023/01/11 02:25:08;;;;;;;4.20;2.30;;;6.90;99.90;;;;;;466007;252;28804;-80
2023/01/11 02:27:09;;;;;;;9.98;3.35;;;6.90;99.90;;;;;;466000;252;27451;-79
2023/01/11 02:29:10;;;;;;;4.33;2.90;;;6.90;99.90;;;;;;466006;252;27499;-80
2023/01/11 02:31:12;;;;;;;7.73;2.70;;;6.90;99.90;;;;;;466006;252;28717;-79
2023/01/11 02:33:13;;;;;;;4.87;2.20;;;6.90;99.90;;;;;;465958;252;28377;-80
2023/01/11 02:35:14;;;;;;;4.72;2.58;;;6.90;99.90;;;;;;465965;252;29527;-80
2023/01/11 02:37:15;;;;;;;3.75;2.28;;;6.90;99.90;;;;;;465996;252;27507;-80
2023/01/11 02:39:17;;;;;;;4.47;2.50;;;6.90;99.90;;;;;;465947;252;27499;-80
2023/01/11 02:41:18;;;;;;;4.93;2.83;;;6.90;99.90;;;;;;465972;252;28856;-80
2023/01/11 02:45:39;;;;;;;6.72;2.80;;;7.00;99.90;;;;;;465934;255;27427;-79
2023/01/11 02:47:40;;;;;;;3.50;2.40;;;7.00;99.90;;;;;;465960;252;27462;-79
2023/01/11 02:49:41;;;;;;;6.68;3.08;;;7.00;99.90;;;;;;465964;252;27768;-77
2023/01/11 02:51:43;;;;;;;7.53;2.80;;;7.00;99.90;;;;;;465972;252;27990;-78
2023/01/11 02:53:46;;;;;;;6.18;2.35;;;7.00;99.90;;;;;;466012;252;27957;-81
2023/01/11 02:55:47;;;;;;;3.12;2.35;;;7.00;99.90;;;;;;465842;255;27426;-80
2023/01/11 02:57:46;;;;;;;3.15;2.42;;;7.10;99.90;;;;;;465904;252;27443;-79
2023/01/11 02:59:48;;;;;;;5.35;2.55;;;7.00;99.90;;;;;;465944;252;27415;-79
2023/01/11 03:01:50;;;;;;;3.70;2.47;;;7.10;99.90;;;;;;465986;252;27528;-77
2023/01/11 03:03:50;;;;;;;3.83;2.35;;;7.00;99.90;;;;;;465951;252;28908;-78
2023/01/11 03:05:52;;;;;;;4.00;2.45;;;7.10;99.90;;;;;;466005;252;27947;-78
2023/01/11 03:07:53;;;;;;;4.43;2.30;;;7.10;99.90;;;;;;465960;252;27976;-79
2023/01/11 03:09:54;;;;;;;2.70;2.20;;;7.10;99.90;;;;;;465994;252;29476;-78
2023/01/11 03:14:15;;;;;;;3.92;2.53;;;7.10;99.90;;;;;;465960;255;27505;-79
2023/01/11 03:16:16;;;;;;;6.20;2.62;;;7.10;99.90;;;;;;465964;252;27510;-79
2023/01/11 03:18:17;;;;;;;2.47;2.22;;;7.10;99.90;;;;;;465962;252;27477;-80
2023/01/11 03:20:19;;;;;;;5.15;2.40;;;7.10;99.90;;;;;;465963;252;28050;-78
2023/01/11 03:22:20;;;;;;;2.47;2.28;;;7.10;99.90;;;;;;465979;255;27883;-78
2023/01/11 03:24:21;;;;;;;5.03;2.33;;;7.20;99.90;;;;;;465990;252;27491;-76
2023/01/11 03:26:22;;;;;;;3.15;2.10;;;7.10;99.90;;;;;;465952;252;27542;-80
2023/01/11 03:28:24;;;;;;;5.70;2.80;;;7.10;99.90;;;;;;465895;252;27486;-80
2023/01/11 03:30:25;;;;;;;6.10;2.27;;;7.10;99.90;;;;;;465976;252;27482;-79
2023/01/11 03:32:26;;;;;;;4.50;1.87;;;7.10;99.90;;;;;;465974;252;27726;-76
2023/01/11 03:34:27;;;;;;;2.27;2.07;;;7.10;99.90;;;;;;465964;252;28901;-79
2023/01/11 03:36:29;;;;;;;4.23;1.90;;;7.10;99.90;;;;;;465982;252;28531;-76
2023/01/11 03:38:30;;;;;;;2.50;2.17;;;7.10;99.90;;;;;;465936;252;29392;-80
2023/01/11 03:40:31;;;;;;;2.60;1.73;;;7.10;99.90;;;;;;465992;252;29736;-80
2023/01/11 03:42:32;;;;;;;2.65;2.12;;;7.10;99.90;;;;;;465998;252;29321;-80
2023/01/11 03:44:34;;;;;;;2.35;2.00;;;7.10;99.90;;;;;;466009;252;27445;-80
2023/01/11 03:46:35;;;;;;;3.35;2.00;;;7.10;99.90;;;;;;465946;252;27517;-80
2023/01/11 03:48:36;;;;;;;2.73;1.90;;;7.10;99.90;;;;;;465967;252;27451;-79
2023/01/11 03:50:37;;;;;;;7.05;2.50;;;7.10;99.90;;;;;;465979;252;28865;-80
2023/01/11 03:52:40;;;;;;;3.33;2.00;;;7.10;99.90;;;;;;466011;252;27466;-80
2023/01/11 03:54:40;;;;;;;4.40;2.40;;;7.10;99.90;;;;;;465956;252;27794;-80
2023/01/11 03:56:41;;;;;;;4.50;2.00;;;7.10;99.90;;;;;;465996;252;27890;-80
2023/01/11 03:58:42;;;;;;;4.47;2.23;;;7.10;99.90;;;;;;465986;252;27497;-81
2023/01/11 04:00:44;;;;;;;3.67;2.03;;;7.10;99.90;;;;;;465985;252;28851;-79
2023/01/11 04:02:45;;;;;;;2.65;2.30;;;7.10;99.90;;;;;;465983;255;27435;-80
2023/01/11 04:04:46;;;;;;;6.00;1.83;;;7.10;99.90;;;;;;465999;252;27486;-79
2023/01/11 04:06:47;;;;;;;4.10;1.80;;;7.10;99.90;;;;;;466000;252;27478;-80
2023/01/11 04:08:49;;;;;;;1.63;1.53;;;7.10;99.90;;;;;;465977;252;28817;-80
2023/01/11 04:10:50;;;;;;;2.70;1.90;;;7.20;99.90;;;;;;465976;252;29078;-80
2023/01/11 04:12:51;;;;;;;1.77;1.63;;;7.10;99.90;;;;;;465947;255;28395;-79
2023/01/11 04:14:52;;;;;;;2.83;1.77;;;7.20;99.90;;;;;;466013;252;28597;-80
2023/01/11 04:16:54;;;;;;;2.13;1.80;;;7.20;99.90;;;;;;465916;252;28124;-80
2023/01/11 04:18:55;;;;;;;2.77;1.90;;;7.30;99.90;;;;;;465975;252;29325;-80
2023/01/11 04:20:56;;;;;;;2.30;1.97;;;7.30;99.90;;;;;;465939;252;27948;-80
2023/01/11 04:22:57;;;;;;;3.53;2.03;;;7.30;99.90;;;;;;465962;252;28942;-79
2023/01/11 04:24:59;;;;;;;1.95;1.80;;;7.30;99.90;;;;;;465987;252;27948;-81
2023/01/11 04:27:00;;;;;;;2.60;1.80;;;7.20;99.90;;;;;;465978;254;27589;-79
2023/01/11 04:29:01;;;;;;;2.70;1.57;;;7.30;99.90;;;;;;465979;252;27729;-80
2023/01/11 04:31:02;;;;;;;2.63;1.93;;;7.30;99.90;;;;;;465963;252;28914;-81
2023/01/11 04:33:04;;;;;;;2.40;1.57;;;7.30;99.90;;;;;;465947;255;28879;-80
2023/01/11 04:35:05;;;;;;;4.40;1.60;;;7.30;99.90;;;;;;465998;252;27876;-80
2023/01/11 04:37:06;;;;;;;1.80;1.70;;;7.30;99.90;;;;;;466003;252;27841;-79
2023/01/11 04:39:09;;;;;;;1.87;1.48;;;7.30;99.90;;;;;;465988;252;28058;-80
2023/01/11 04:43:28;;;;;;;2.00;1.80;;;7.40;99.90;;;;;;465956;255;28164;-76
2023/01/11 04:45:29;;;;;;;2.72;1.80;;;7.40;99.90;;;;;;465999;252;28010;-80
2023/01/11 04:47:31;;;;;;;1.53;1.43;;;7.40;99.90;;;;;;465999;252;27886;-80
2023/01/11 04:49:32;;;;;;;1.53;1.43;;;7.40;99.90;;;;;;465983;252;28620;-81
2023/01/11 04:51:33;;;;;;;2.20;2.00;;;7.40;99.90;;;;;;465955;252;31081;-80
2023/01/11 04:53:34;;;;;;;1.67;1.57;;;7.50;99.90;;;;;;465984;252;28199;-79
2023/01/11 04:55:36;;;;;;;1.67;1.57;;;7.50;99.90;;;;;;466013;252;28925;-80
2023/01/11 04:57:37;;;;;;;2.30;1.73;;;7.50;99.90;;;;;;465961;252;28113;-80
2023/01/11 04:59:38;;;;;;;5.30;1.70;;;7.50;99.90;;;;;;465937;252;27461;-80
2023/01/11 05:01:39;;;;;;;1.77;1.67;;;7.50;99.90;;;;;;465973;252;28808;-80
2023/01/11 05:03:41;;;;;;;2.95;2.22;;;7.50;99.90;;;;;;465992;252;27606;-80
2023/01/11 05:05:42;;;;;;;3.47;2.00;;;7.50;99.90;;;;;;466006;252;27490;-80
2023/01/11 05:07:43;;;;;;;7.47;1.93;;;7.50;99.90;;;;;;465949;252;27882;-79
2023/01/11 05:09:44;;;;;;;2.90;1.90;;;7.50;99.90;;;;;;465944;252;27866;-80
2023/01/11 05:11:46;;;;;;;3.27;1.93;;;7.50;99.90;;;;;;466000;252;27534;-79
2023/01/11 05:13:47;;;;;;;1.90;1.40;;;7.50;99.90;;;;;;466003;255;28335;-79
2023/01/11 05:15:48;;;;;;;1.60;1.50;;;7.50;99.90;;;;;;465995;252;28281;-80
2023/01/11 05:17:49;;;;;;;2.30;1.50;;;7.50;99.90;;;;;;466003;252;28034;-79
2023/01/11 05:19:51;;;;;;;2.30;1.60;;;7.50;99.90;;;;;;465977;252;29304;-80
2023/01/11 05:21:52;;;;;;;1.50;1.40;;;7.50;99.90;;;;;;465996;252;28815;-80
2023/01/11 05:23:53;;;;;;;1.60;1.50;;;7.50;99.90;;;;;;466013;252;27750;-81
2023/01/11 05:25:54;;;;;;;1.60;1.50;;;7.50;99.90;;;;;;465998;252;27466;-81
2023/01/11 05:27:56;;;;;;;1.80;1.70;;;7.50;99.90;;;;;;465987;252;27923;-80
2023/01/11 05:29:57;;;;;;;1.30;1.30;;;7.50;99.90;;;;;;465943;252;28649;-80
2023/01/11 05:31:58;;;;;;;1.95;1.55;;;7.50;99.90;;;;;;465998;252;27839;-81
2023/01/11 05:34:00;;;;;;;1.60;1.30;;;7.50;99.90;;;;;;465986;252;27442;-80
2023/01/11 05:36:01;;;;;;;1.97;1.53;;;7.60;99.90;;;;;;465973;252;28506;-80
2023/01/11 05:38:02;;;;;;;1.40;1.30;;;7.60;99.90;;;;;;465965;252;28046;-80
2023/01/11 05:40:03;;;;;;;1.80;1.50;;;7.60;99.90;;;;;;465998;252;27938;-81
2023/01/11 05:42:05;;;;;;;2.00;1.80;;;7.60;99.90;;;;;;465965;252;28079;-80
2023/01/11 05:46:25;;;;;;;3.47;1.83;;;7.60;99.90;;;;;;465966;255;28330;-77
2023/01/11 05:48:26;;;;;;;2.70;1.90;;;7.60;99.90;;;;;;465980;252;27875;-80
2023/01/11 05:50:28;;;;;;;3.78;2.35;;;7.60;99.90;;;;;;465974;252;28833;-79
2023/01/11 05:52:29;;;;;;;1.70;1.40;;;7.60;99.90;;;;;;466002;252;27534;-81
2023/01/11 05:54:30;;;;;;;7.00;1.80;;;7.60;99.90;;;;;;465991;252;27604;-80
2023/01/11 05:56:31;;;;;;;4.30;1.83;;;7.60;99.90;;;;;;465946;252;27589;-80
2023/01/11 05:58:33;;;;;;;2.60;1.90;;;7.60;99.90;;;;;;465956;252;27953;-80
2023/01/11 06:00:34;;;;;;;6.75;2.05;;;7.60;99.90;;;;;;465984;252;27978;-80
2023/01/11 06:02:35;;;;;;;2.10;1.90;;;7.60;99.90;;;;;;465972;252;27471;-81
2023/01/11 06:04:36;;;;;;;1.83;1.73;;;7.70;99.90;;;;;;465957;252;28902;-80
2023/01/11 06:06:38;;;;;;;1.90;1.70;;;7.70;99.90;;;;;;465933;254;27935;-80
2023/01/11 06:08:39;;;;;;;2.50;1.90;;;7.70;99.90;;;;;;465955;252;27969;-80
2023/01/11 06:10:40;;;;;;;1.83;1.62;;;7.70;99.90;;;;;;465975;252;28405;-80
2023/01/11 06:12:41;;;;;;;2.57;1.80;;;7.70;99.90;;;;;;465973;252;28061;-79
2023/01/11 06:14:43;;;;;;;1.90;1.63;;;7.70;99.90;;;;;;465932;252;27546;-79
2023/01/11 06:16:44;;;;;;;2.20;1.83;;;7.70;99.90;;;;;;465963;252;27988;-80
2023/01/11 06:18:45;;;;;;;1.80;1.70;;;7.70;99.90;;;;;;465940;252;27902;-79
2023/01/11 06:20:46;;;;;;;1.43;1.33;;;7.70;99.90;;;;;;465937;252;27817;-80
2023/01/11 06:22:48;;;;;;;1.63;1.53;;;7.70;99.90;;;;;;465986;252;27815;-80
2023/01/11 06:24:49;;;;;;;1.77;1.50;;;7.70;99.90;;;;;;465968;252;27925;-79
2023/01/11 06:26:50;;;;;;;1.60;1.50;;;7.70;99.90;;;;;;466012;252;27612;-80
2023/01/11 06:28:51;;;;;;;1.40;1.30;;;7.80;99.90;;;;;;465982;252;27511;-79
2023/01/11 06:30:53;;;;;;;3.60;1.80;;;7.80;99.90;;;;;;465939;253;28276;-80
2023/01/11 06:32:54;;;;;;;1.97;1.53;;;7.80;99.90;;;;;;465978;252;27924;-81
2023/01/11 06:34:55;;;;;;;1.70;1.60;;;7.80;99.90;;;;;;465991;252;27725;-80
2023/01/11 06:36:56;;;;;;;3.07;1.80;;;7.80;99.90;;;;;;465990;252;27938;-80
2023/01/11 06:38:58;;;;;;;1.37;1.27;;;7.80;99.90;;;;;;465980;252;28373;-80
2023/01/11 06:40:59;;;;;;;2.60;1.30;;;7.80;99.90;;;;;;465971;252;28406;-80
2023/01/11 06:43:00;;;;;;;2.63;1.30;;;7.80;99.90;;;;;;465968;252;28745;-81
2023/01/11 06:45:01;;;;;;;1.30;1.20;;;7.80;99.90;;;;;;465987;252;28132;-80
2023/01/11 06:47:03;;;;;;;1.70;1.33;;;7.80;99.90;;;;;;465979;252;28317;-80
2023/01/11 06:49:04;;;;;;;1.17;1.10;;;7.90;99.90;;;;;;465952;252;27730;-81
2023/01/11 06:51:05;;;;;;;1.13;1.03;;;7.90;99.90;;;;;;465942;252;27944;-80
2023/01/11 06:53:06;;;;;;;1.10;1.10;;;7.90;99.90;;;;;;465954;252;28000;-80
2023/01/11 06:55:08;;;;;;;1.00;1.00;;;7.90;99.90;;;;;;465945;252;27427;-80
2023/01/11 06:57:09;;;;;;;1.57;1.03;;;7.90;99.90;;;;;;465976;252;28073;-80
2023/01/11 06:59:10;;;;;;;3.28;1.40;;;7.90;99.90;;;;;;465964;252;27651;-80
2023/01/11 07:01:11;;;;;;;1.10;1.10;;;7.90;99.90;;;;;;465899;252;27526;-79
2023/01/11 07:03:13;;;;;;;1.40;1.30;;;7.90;99.90;;;;;;465890;252;27888;-80
2023/01/11 07:05:14;;;;;;;1.80;1.10;;;7.90;99.90;;;;;;465998;252;27857;-81
2023/01/11 07:07:15;;;;;;;2.20;1.07;;;7.90;99.90;;;;;;465971;252;27942;-80
2023/01/11 07:09:16;;;;;;;1.20;1.10;;;8.00;99.90;;;;;;465937;252;27419;-80
2023/01/11 07:11:18;;;;;;;1.80;1.13;;;8.00;99.90;;;;;;465953;252;27960;-80
2023/01/11 07:13:19;;;;;;;1.00;1.00;;;8.00;99.90;;;;;;465931;252;28009;-79
2023/01/11 07:15:20;;;;;;;1.37;1.37;;;8.00;99.90;;;;;;465970;252;28463;-80
2023/01/11 07:17:21;;;;;;;1.70;1.23;;;8.00;99.90;;;;;;465969;252;28115;-81
2023/01/11 07:19:23;;;;;;;2.27;1.20;;;8.00;99.90;;;;;;465949;252;28349;-80
2023/01/11 07:21:24;;;;;;;1.30;1.20;;;8.10;99.90;;;;;;465954;252;28532;-80
2023/01/11 07:23:25;;;;;;;1.80;0.90;;;8.10;99.90;;;;;;465939;252;27969;-80
2023/01/11 07:25:26;;;;;;;1.30;1.13;;;8.10;99.90;;;;;;465967;252;27561;-81
2023/01/11 07:27:28;;;;;;;1.30;1.20;;;8.10;99.90;;;;;;465979;252;27811;-79
2023/01/11 07:29:29;;;;;;;2.60;1.07;;;8.10;99.90;;;;;;465956;252;27981;-80
2023/01/11 07:31:30;;;;;;;0.97;0.97;;;8.10;99.90;;;;;;465943;252;27818;-80
2023/01/11 07:33:31;;;;;;;1.80;1.13;;;8.20;99.90;;;;;;465961;252;28054;-80
2023/01/11 07:35:33;;;;;;;1.10;1.00;;;8.20;99.90;;;;;;465956;252;27969;-81
2023/01/11 07:37:35;;;;;;;1.10;1.03;;;8.20;99.90;;;;;;465995;252;27976;-81
2023/01/11 07:39:35;;;;;;;1.00;1.00;;;8.20;99.90;;;;;;465900;255;27907;-81
2023/01/11 07:43:56;;;;;;;0.90;0.90;;;8.20;99.90;;;;;;465954;255;27872;-78
2023/01/11 07:45:57;;;;;;;1.23;1.00;;;8.20;99.90;;;;;;465995;252;27918;-79
2023/01/11 07:47:58;;;;;;;1.00;1.00;;;8.20;99.90;;;;;;465996;252;28141;-80
2023/01/11 07:49:59;;;;;;;1.10;1.10;;;8.30;99.90;;;;;;465979;252;27855;-79
2023/01/11 07:52:01;;;;;;;1.63;1.00;;;8.20;99.90;;;;;;465970;252;27988;-80
2023/01/11 07:54:02;;;;;;;1.53;1.00;;;8.20;99.90;;;;;;465969;252;27933;-80
2023/01/11 07:56:03;;;;;;;0.90;0.90;;;8.30;99.90;;;;;;465990;252;27815;-80
2023/01/11 07:58:04;;;;;;;1.30;1.03;;;8.30;99.90;;;;;;465976;252;28051;-80
2023/01/11 08:00:06;;;;;;;0.90;0.90;;;8.30;99.90;;;;;;465973;252;27732;-80
2023/01/11 08:02:07;;;;;;;1.00;1.00;;;8.30;99.90;;;;;;465956;252;27941;-80
2023/01/11 08:04:11;;;;;;;0.90;0.90;;;8.30;99.90;;;;;;465946;252;28655;-80
2023/01/11 08:06:09;;;;;;;2.30;0.90;;;8.30;99.90;;;;;;465803;255;28435;-79
2023/01/11 08:08:11;;;;;;;1.00;1.00;;;8.30;99.90;;;;;;465983;252;28489;-80
2023/01/11 08:10:12;;;;;;;1.50;0.93;;;8.30;99.90;;;;;;466008;252;28430;-80
2023/01/11 08:14:39;;;;;;;0.87;0.87;;;8.30;99.90;;;;;;465983;255;27980;-79
2023/01/11 08:16:40;;;;;;;1.00;1.00;;;8.30;99.90;;;;;;466014;252;28614;-78
2023/01/11 08:18:41;;;;;;;1.00;1.00;;;8.30;99.90;;;;;;465985;255;27801;-81
2023/01/11 08:20:42;;;;;;;0.90;0.90;;;8.40;99.90;;;;;;465999;252;27899;-81
2023/01/11 08:22:44;;;;;;;0.70;0.70;;;8.40;99.90;;;;;;465997;252;28046;-81
2023/01/11 08:24:45;;;;;;;0.90;0.90;;;8.40;99.90;;;;;;465940;255;27535;-80
2023/01/11 08:26:46;;;;;;;0.90;0.90;;;8.40;99.90;;;;;;466005;252;27897;-80
2023/01/11 08:28:47;;;;;;;1.00;1.00;;;8.40;99.90;;;;;;466042;252;27658;-80
2023/01/11 08:30:48;;;;;;;0.90;0.90;;;8.40;99.90;;;;;;465992;252;27929;-79
2023/01/11 08:32:50;;;;;;;0.70;0.70;;;8.40;99.90;;;;;;465978;252;27963;-80
2023/01/11 08:34:51;;;;;;;1.00;1.00;;;8.40;99.90;;;;;;465950;252;28014;-80
2023/01/11 08:36:52;;;;;;;1.20;1.10;;;8.40;99.90;;;;;;466032;252;27624;-81
2023/01/11 08:38:54;;;;;;;0.83;0.83;;;8.40;99.90;;;;;;465988;252;27972;-80
2023/01/11 08:40:55;;;;;;;1.10;1.00;;;8.40;99.90;;;;;;465937;252;27773;-80
2023/01/11 08:42:56;;;;;;;1.00;1.00;;;8.40;99.90;;;;;;465918;252;28058;-80
2023/01/11 08:44:57;;;;;;;0.90;0.90;;;8.40;99.90;;;;;;465888;252;28458;-79
2023/01/11 08:46:58;;;;;;;0.97;0.80;;;8.40;99.90;;;;;;465973;252;28384;-80
2023/01/11 08:49:00;;;;;;;0.83;0.83;;;8.40;99.90;;;;;;465942;252;28540;-80
2023/01/11 08:51:01;;;;;;;1.17;0.80;;;8.50;99.90;;;;;;465932;254;28588;-80
2023/01/11 08:53:02;;;;;;;0.90;0.90;;;8.50;99.90;;;;;;465939;252;28396;-80
2023/01/11 08:55:06;;;;;;;0.90;0.90;;;8.50;99.90;;;;;;465928;252;29284;-79
2023/01/11 08:57:05;;;;;;;1.60;1.17;;;8.50;99.90;;;;;;465858;255;27974;-80
2023/01/11 08:59:06;;;;;;;1.10;1.10;;;8.50;99.90;;;;;;465955;252;27572;-81
2023/01/11 09:01:11;;;;;;;0.97;0.97;;;8.50;99.90;;;;;;465879;252;27907;-79
2023/01/11 09:03:12;;;;;;;0.83;0.83;;;8.50;99.90;;;;;;465917;252;29282;-77
2023/01/11 09:05:13;;;;;;;4.43;1.00;;;8.50;99.90;;;;;;465998;252;28519;-78
2023/01/11 09:07:14;;;;;;;1.17;1.10;;;8.50;99.90;;;;;;465983;252;28569;-80
2023/01/11 09:09:15;;;;;;;1.23;0.93;;;8.50;99.90;;;;;;465950;252;28222;-79
2023/01/11 09:13:36;;;;;;;1.67;1.20;;;8.50;99.90;;;;;;465961;255;28499;-79
2023/01/11 09:15:38;;;;;;;1.10;1.00;;;8.50;99.90;;;;;;465972;252;28258;-80
2023/01/11 09:17:39;;;;;;;1.17;1.17;;;8.50;99.90;;;;;;465937;252;28464;-80
2023/01/11 09:19:40;;;;;;;1.00;1.00;;;8.50;99.90;;;;;;465948;252;28212;-79
2023/01/11 09:21:42;;;;;;;1.43;1.10;;;8.50;99.90;;;;;;465943;252;27989;-80
2023/01/11 09:23:43;;;;;;;4.00;1.17;;;8.60;99.90;;;;;;465985;252;28036;-81
2023/01/11 09:25:44;;;;;;;0.90;0.90;;;8.60;99.90;;;;;;465897;254;27949;-80
2023/01/11 09:27:45;;;;;;;1.47;1.00;;;8.60;99.90;;;;;;465974;252;28161;-81
2023/01/11 09:29:46;;;;;;;1.17;1.17;;;8.60;99.90;;;;;;465946;252;27901;-80
2023/01/11 09:31:47;;;;;;;1.10;1.10;;;8.50;99.90;;;;;;465984;252;27870;-80
2023/01/11 09:33:49;;;;;;;0.90;0.90;;;8.60;99.90;;;;;;466001;252;28025;-81
2023/01/11 09:35:50;;;;;;;2.73;0.97;;;8.60;99.90;;;;;;465968;252;27915;-80
2023/01/11 09:37:53;;;;;;;1.33;1.23;;;8.60;99.90;;;;;;465969;252;28010;-80
2023/01/11 09:39:52;;;;;;;1.07;0.97;;;8.60;99.90;;;;;;465871;255;27906;-80
2023/01/11 09:41:59;;;;;;;1.37;1.27;;;8.50;99.90;;;;;;465979;252;28116;-80
2023/01/11 09:43:55;;;;;;;1.17;1.10;;;8.50;99.90;;;;;;465557;255;27945;-80
2023/01/11 09:45:59;;;;;;;1.03;0.90;;;8.50;99.90;;;;;;465994;252;27870;-80
2023/01/11 09:48:10;;;;;;;1.50;1.40;;;8.50;99.90;;;;;;465758;255;28374;-81
2023/01/11 09:50:05;;;;;;;0.90;0.90;;;8.60;99.90;;;;;;465380;255;28039;-79
2023/01/11 09:52:08;;;;;;;4.47;0.90;;;8.60;99.90;;;;;;465988;252;27957;-81
2023/01/11 09:54:09;;;;;;;2.77;1.10;;;8.70;99.90;;;;;;465860;255;27471;-77
2023/01/11 09:56:08;;;;;;;1.07;1.00;;;8.60;99.90;;;;;;465903;255;27764;-78
2023/01/11 09:58:10;;;;;;;1.10;1.00;;;8.60;99.90;;;;;;466016;252;27988;-80
2023/01/11 10:00:11;;;;;;;1.10;1.10;;;8.70;99.90;;;;;;466017;252;28065;-80
2023/01/11 10:02:13;;;;;;;1.53;1.10;;;8.70;99.90;;;;;;465982;252;27961;-80
2023/01/11 10:04:19;;;;;;;1.00;0.80;;;8.70;99.90;;;;;;466015;252;28024;-81
2023/01/11 10:06:17;;;;;;;0.80;0.80;;;8.70;99.90;;;;;;465506;255;28417;-79
2023/01/11 10:08:22;;;;;;;1.00;1.00;;;8.70;99.90;;;;;;465843;255;28267;-80
2023/01/11 10:10:17;;;;;;;0.90;0.90;;;8.70;99.90;;;;;;465403;255;28427;-79
2023/01/11 10:12:20;;;;;;;1.20;1.03;;;8.70;99.90;;;;;;465958;252;28306;-80
2023/01/11 10:14:22;;;;;;;0.90;0.90;;;8.70;99.90;;;;;;465841;255;28474;-80
2023/01/11 10:16:23;;;;;;;0.83;0.83;;;8.70;99.90;;;;;;465885;255;27902;-80
2023/01/11 10:18:22;;;;;;;0.80;0.80;;;8.70;99.90;;;;;;465800;255;27934;-80
2023/01/11 10:20:26;;;;;;;1.00;1.00;;;8.70;99.90;;;;;;465970;252;27538;-80
2023/01/11 10:22:30;;;;;;;0.90;0.90;;;8.70;99.90;;;;;;465721;255;27781;-81
2023/01/11 10:24:27;;;;;;;1.10;1.00;;;8.70;99.90;;;;;;465535;255;27877;-79
2023/01/11 10:26:28;;;;;;;0.90;0.90;;;8.70;99.90;;;;;;465950;252;27946;-79
2023/01/11 10:28:32;;;;;;;1.20;0.80;;;8.70;99.90;;;;;;465934;252;28060;-80
2023/01/11 10:30:40;;;;;;;0.97;0.80;;;8.70;99.90;;;;;;465749;255;28003;-80
2023/01/11 10:32:48;;;;;;;0.97;0.97;;;8.70;99.90;;;;;;465270;255;28024;-74
2023/01/11 10:34:48;;;;;;;1.00;1.00;;;8.70;99.90;;;;;;464533;255;28082;-78
2023/01/11 10:41:07;;;;;;;0.97;0.93;;;8.90;99.90;;;;;;465951;252;28056;-81
2023/01/11 10:43:07;;;;;;;1.10;1.00;;;8.90;99.90;;;;;;465654;255;27830;-80
2023/01/11 10:45:05;;;;;;;0.80;0.80;;;8.90;99.90;;;;;;465692;255;27531;-80
2023/01/11 10:47:07;;;;;;;0.93;0.90;;;8.90;99.90;;;;;;465992;252;27924;-80
2023/01/11 10:49:08;;;;;;;0.90;0.90;;;9.00;99.90;;;;;;465993;252;27904;-81
2023/01/11 10:51:09;;;;;;;0.90;0.90;;;9.10;99.90;;;;;;465960;252;27955;-80
2023/01/11 10:53:11;;;;;;;0.90;0.90;;;9.10;99.90;;;;;;465958;252;28013;-80
2023/01/11 10:55:12;;;;;;;2.70;0.90;;;9.10;99.90;;;;;;465972;252;27836;-80
2023/01/11 10:57:14;;;;;;;1.07;1.00;;;9.10;99.90;;;;;;465964;252;27949;-81
2023/01/11 10:59:14;;;;;;;1.20;0.87;;;9.20;99.90;;;;;;465934;252;27980;-80
2023/01/11 11:01:19;;;;;;;0.80;0.80;;;9.10;99.90;;;;;;465979;252;28013;-80
2023/01/11 11:03:17;;;;;;;0.80;0.80;;;9.10;99.90;;;;;;465728;255;27499;-81
2023/01/11 11:05:18;;;;;;;1.33;1.00;;;9.20;99.90;;;;;;465942;252;28423;-80
2023/01/11 11:07:19;;;;;;;1.10;1.00;;;9.20;99.90;;;;;;465986;252;28510;-80
2023/01/11 11:09:20;;;;;;;0.80;0.80;;;9.10;99.90;;;;;;465978;252;28448;-80